sensor_id;sensor_type;location;lat;lon;timestamp;P1;durP1;ratioP1;P2;durP2;ratioP2
16994;SDS011;8614;48.522;9.206;2023-04-03T02:02:20;10.53;;;9.63;;
16994;SDS011;8614;48.522;9.206;2023-04-03T02:04:47;9.33;;;8.60;;
16994;SDS011;8614;48.522;9.206;2023-04-03T02:07:14;9.97;;;9.20;;
16994;SDS011;8614;48.522;9.206;2023-04-03T02:09:41;9.80;;;8.93;;
16994;SDS011;8614;48.522;9.206;2023-04-03T02:12:08;10.23;;;9.43;;
16994;SDS011;8614;48.522;9.206;2023-04-03T02:14:35;10.77;;;9.97;;
16994;SDS011;8614;48.522;9.206;2023-04-03T02:17:02;10.30;;;9.50;;
16994;SDS011;8614;48.522;9.206;2023-04-03T02:19:34;10.77;;;9.97;;
16994;SDS011;8614;48.522;9.206;2023-04-03T02:22:01;10.37;;;9.57;;
16994;SDS011;8614;48.522;9.206;2023-04-03T02:24:28;11.10;;;10.13;;
16994;SDS011;8614;48.522;9.206;2023-04-03T02:26:56;10.07;;;9.27;;
16994;SDS011;8614;48.522;9.206;2023-04-03T02:29:23;10.63;;;9.83;;
16994;SDS011;8614;48.522;9.206;2023-04-03T02:31:50;11.13;;;10.00;;
16994;SDS011;8614;48.522;9.206;2023-04-03T02:34:17;11.03;;;10.13;;
16994;SDS011;8614;48.522;9.206;2023-04-03T02:36:47;10.27;;;9.37;;
16994;SDS011;8614;48.522;9.206;2023-04-03T02:39:15;10.50;;;9.73;;
16994;SDS011;8614;48.522;9.206;2023-04-03T02:41:43;10.47;;;9.77;;
16994;SDS011;8614;48.522;9.206;2023-04-03T02:44:17;9.90;;;9.17;;
16994;SDS011;8614;48.522;9.206;2023-04-03T02:46:44;10.20;;;9.40;;
16994;SDS011;8614;48.522;9.206;2023-04-03T02:49:11;10.37;;;9.47;;
16994;SDS011;8614;48.522;9.206;2023-04-03T02:51:38;10.70;;;9.83;;
16994;SDS011;8614;48.522;9.206;2023-04-03T02:54:06;10.23;;;9.43;;
16994;SDS011;8614;48.522;9.206;2023-04-03T02:56:37;10.57;;;9.60;;
16994;SDS011;8614;48.522;9.206;2023-04-03T02:59:04;10.43;;;9.63;;
16994;SDS011;8614;48.522;9.206;2023-04-03T03:01:32;10.30;;;9.60;;
16994;SDS011;8614;48.522;9.206;2023-04-03T03:03:59;10.90;;;10.10;;
16994;SDS011;8614;48.522;9.206;2023-04-03T03:06:26;10.90;;;10.00;;
16994;SDS011;8614;48.522;9.206;2023-04-03T03:08:53;10.57;;;9.77;;
16994;SDS011;8614;48.522;9.206;2023-04-03T03:11:21;10.30;;;9.50;;
16994;SDS011;8614;48.522;9.206;2023-04-03T03:13:48;11.40;;;10.40;;
16994;SDS011;8614;48.522;9.206;2023-04-03T03:16:16;10.97;;;10.10;;
16994;SDS011;8614;48.522;9.206;2023-04-03T03:18:42;10.30;;;9.50;;
16994;SDS011;8614;48.522;9.206;2023-04-03T03:21:09;11.27;;;10.13;;
16994;SDS011;8614;48.522;9.206;2023-04-03T03:23:36;11.07;;;10.17;;
16994;SDS011;8614;48.522;9.206;2023-04-03T03:26:05;11.00;;;9.90;;
16994;SDS011;8614;48.522;9.206;2023-04-03T03:28:35;11.00;;;10.20;;
16994;SDS011;8614;48.522;9.206;2023-04-03T03:31:23;10.80;;;10.00;;
16994;SDS011;8614;48.522;9.206;2023-04-03T03:33:49;12.03;;;10.83;;
16994;SDS011;8614;48.522;9.206;2023-04-03T03:36:17;10.73;;;9.93;;
16994;SDS011;8614;48.522;9.206;2023-04-03T03:38:44;10.87;;;10.07;;
16994;SDS011;8614;48.522;9.206;2023-04-03T03:41:11;11.40;;;10.50;;
16994;SDS011;8614;48.522;9.206;2023-04-03T03:43:41;10.80;;;10.00;;
16994;SDS011;8614;48.522;9.206;2023-04-03T03:46:07;10.73;;;9.93;;
16994;SDS011;8614;48.522;9.206;2023-04-03T03:48:34;11.17;;;10.37;;
16994;SDS011;8614;48.522;9.206;2023-04-03T03:51:01;11.53;;;10.63;;
16994;SDS011;8614;48.522;9.206;2023-04-03T03:53:33;11.30;;;10.40;;
16994;SDS011;8614;48.522;9.206;2023-04-03T03:56:04;10.60;;;9.70;;
16994;SDS011;8614;48.522;9.206;2023-04-03T03:58:33;11.23;;;10.40;;
16994;SDS011;8614;48.522;9.206;2023-04-03T04:01:02;11.60;;;10.70;;
16994;SDS011;8614;48.522;9.206;2023-04-03T04:03:32;12.00;;;11.07;;
16994;SDS011;8614;48.522;9.206;2023-04-03T04:06:00;11.53;;;10.63;;
16994;SDS011;8614;48.522;9.206;2023-04-03T04:08:27;11.80;;;10.90;;
16994;SDS011;8614;48.522;9.206;2023-04-03T04:10:54;11.57;;;10.77;;
16994;SDS011;8614;48.522;9.206;2023-04-03T04:13:22;11.90;;;10.90;;
16994;SDS011;8614;48.522;9.206;2023-04-03T04:15:49;11.30;;;10.50;;
16994;SDS011;8614;48.522;9.206;2023-04-03T04:18:18;11.70;;;10.83;;
16994;SDS011;8614;48.522;9.206;2023-04-03T04:20:48;11.80;;;10.90;;
16994;SDS011;8614;48.522;9.206;2023-04-03T04:23:16;12.37;;;11.17;;
16994;SDS011;8614;48.522;9.206;2023-04-03T04:25:45;11.10;;;10.37;;
16994;SDS011;8614;48.522;9.206;2023-04-03T04:28:12;11.47;;;10.67;;
16994;SDS011;8614;48.522;9.206;2023-04-03T04:30:40;11.27;;;10.43;;
16994;SDS011;8614;48.522;9.206;2023-04-03T04:33:08;12.10;;;11.20;;
16994;SDS011;8614;48.522;9.206;2023-04-03T04:35:36;11.30;;;10.50;;
16994;SDS011;8614;48.522;9.206;2023-04-03T04:38:03;11.43;;;10.53;;
16994;SDS011;8614;48.522;9.206;2023-04-03T04:40:30;11.67;;;10.77;;
16994;SDS011;8614;48.522;9.206;2023-04-03T04:42:58;11.53;;;10.73;;
16994;SDS011;8614;48.522;9.206;2023-04-03T04:45:25;11.47;;;10.57;;
16994;SDS011;8614;48.522;9.206;2023-04-03T04:47:54;11.57;;;10.77;;
16994;SDS011;8614;48.522;9.206;2023-04-03T04:50:23;11.73;;;10.63;;
16994;SDS011;8614;48.522;9.206;2023-04-03T04:52:51;12.10;;;11.30;;
16994;SDS011;8614;48.522;9.206;2023-04-03T04:55:18;11.63;;;10.83;;
16994;SDS011;8614;48.522;9.206;2023-04-03T04:57:45;12.67;;;11.63;;
16994;SDS011;8614;48.522;9.206;2023-04-03T05:00:14;11.93;;;10.93;;
16994;SDS011;8614;48.522;9.206;2023-04-03T05:02:42;12.33;;;11.27;;
16994;SDS011;8614;48.522;9.206;2023-04-03T05:05:09;11.53;;;10.67;;
16994;SDS011;8614;48.522;9.206;2023-04-03T05:07:36;10.83;;;10.13;;
16994;SDS011;8614;48.522;9.206;2023-04-03T05:10:06;10.80;;;10.10;;
16994;SDS011;8614;48.522;9.206;2023-04-03T05:12:35;11.13;;;10.33;;
16994;SDS011;8614;48.522;9.206;2023-04-03T05:15:03;11.80;;;10.90;;
16994;SDS011;8614;48.522;9.206;2023-04-03T05:17:32;11.60;;;10.70;;
16994;SDS011;8614;48.522;9.206;2023-04-03T05:19:59;11.47;;;10.57;;
16994;SDS011;8614;48.522;9.206;2023-04-03T05:22:27;11.30;;;10.50;;
16994;SDS011;8614;48.522;9.206;2023-04-03T05:24:59;11.30;;;10.50;;
16994;SDS011;8614;48.522;9.206;2023-04-03T05:27:28;12.10;;;11.10;;
16994;SDS011;8614;48.522;9.206;2023-04-03T05:29:57;11.70;;;10.90;;
16994;SDS011;8614;48.522;9.206;2023-04-03T05:32:25;11.30;;;10.60;;
16994;SDS011;8614;48.522;9.206;2023-04-03T05:35:04;12.07;;;11.10;;
16994;SDS011;8614;48.522;9.206;2023-04-03T05:37:32;11.13;;;10.30;;
16994;SDS011;8614;48.522;9.206;2023-04-03T05:39:59;11.70;;;10.90;;
16994;SDS011;8614;48.522;9.206;2023-04-03T05:42:29;11.67;;;10.77;;
16994;SDS011;8614;48.522;9.206;2023-04-03T05:44:56;11.40;;;10.70;;
16994;SDS011;8614;48.522;9.206;2023-04-03T05:47:23;11.63;;;10.80;;
16994;SDS011;8614;48.522;9.206;2023-04-03T05:49:51;11.10;;;10.30;;
16994;SDS011;8614;48.522;9.206;2023-04-03T05:52:20;11.00;;;10.20;;
16994;SDS011;8614;48.522;9.206;2023-04-03T05:54:50;10.90;;;9.90;;
16994;SDS011;8614;48.522;9.206;2023-04-03T05:57:22;10.10;;;9.50;;
16994;SDS011;8614;48.522;9.206;2023-04-03T05:59:51;10.60;;;9.90;;
16994;SDS011;8614;48.522;9.206;2023-04-03T06:02:20;11.47;;;10.60;;
16994;SDS011;8614;48.522;9.206;2023-04-03T06:04:48;10.93;;;10.23;;
16994;SDS011;8614;48.522;9.206;2023-04-03T06:07:16;11.00;;;10.20;;
16994;SDS011;8614;48.522;9.206;2023-04-03T06:09:48;10.73;;;10.03;;
16994;SDS011;8614;48.522;9.206;2023-04-03T06:12:16;11.40;;;10.50;;
16994;SDS011;8614;48.522;9.206;2023-04-03T06:14:43;10.97;;;9.97;;
16994;SDS011;8614;48.522;9.206;2023-04-03T06:17:14;11.13;;;10.30;;
16994;SDS011;8614;48.522;9.206;2023-04-03T06:19:43;10.40;;;9.70;;
16994;SDS011;8614;48.522;9.206;2023-04-03T06:22:09;11.13;;;10.33;;
16994;SDS011;8614;48.522;9.206;2023-04-03T06:24:37;10.97;;;10.17;;
16994;SDS011;8614;48.522;9.206;2023-04-03T06:27:04;11.20;;;10.30;;
16994;SDS011;8614;48.522;9.206;2023-04-03T06:29:31;11.00;;;10.10;;
16994;SDS011;8614;48.522;9.206;2023-04-03T06:31:58;10.27;;;9.57;;
16994;SDS011;8614;48.522;9.206;2023-04-03T06:34:26;10.97;;;10.20;;
16994;SDS011;8614;48.522;9.206;2023-04-03T06:36:52;10.67;;;9.97;;
16994;SDS011;8614;48.522;9.206;2023-04-03T06:39:20;9.97;;;9.37;;
16994;SDS011;8614;48.522;9.206;2023-04-03T06:41:48;10.60;;;9.70;;
16994;SDS011;8614;48.522;9.206;2023-04-03T06:44:16;9.80;;;9.10;;
16994;SDS011;8614;48.522;9.206;2023-04-03T06:46:43;10.33;;;9.53;;
16994;SDS011;8614;48.522;9.206;2023-04-03T06:49:11;10.93;;;10.20;;
16994;SDS011;8614;48.522;9.206;2023-04-03T06:51:39;10.47;;;9.77;;
16994;SDS011;8614;48.522;9.206;2023-04-03T06:54:06;10.80;;;10.07;;
16994;SDS011;8614;48.522;9.206;2023-04-03T06:56:34;10.50;;;9.80;;
16994;SDS011;8614;48.522;9.206;2023-04-03T06:59:01;10.70;;;9.90;;
16994;SDS011;8614;48.522;9.206;2023-04-03T07:01:28;11.00;;;10.30;;
16994;SDS011;8614;48.522;9.206;2023-04-03T07:03:57;10.20;;;9.50;;
16994;SDS011;8614;48.522;9.206;2023-04-03T07:06:25;10.20;;;9.53;;
16994;SDS011;8614;48.522;9.206;2023-04-03T07:08:54;10.63;;;9.93;;
16994;SDS011;8614;48.522;9.206;2023-04-03T07:11:21;10.90;;;10.00;;
16994;SDS011;8614;48.522;9.206;2023-04-03T07:13:48;10.40;;;9.70;;
16994;SDS011;8614;48.522;9.206;2023-04-03T07:16:15;10.27;;;9.53;;
16994;SDS011;8614;48.522;9.206;2023-04-03T07:18:42;10.33;;;9.63;;
16994;SDS011;8614;48.522;9.206;2023-04-03T07:21:08;10.93;;;10.13;;
16994;SDS011;8614;48.522;9.206;2023-04-03T07:23:35;10.37;;;9.67;;
16994;SDS011;8614;48.522;9.206;2023-04-03T07:26:04;10.50;;;9.90;;
16994;SDS011;8614;48.522;9.206;2023-04-03T07:28:31;10.43;;;9.73;;
16994;SDS011;8614;48.522;9.206;2023-04-03T07:30:59;9.80;;;9.20;;
16994;SDS011;8614;48.522;9.206;2023-04-03T07:33:28;9.97;;;9.37;;
16994;SDS011;8614;48.522;9.206;2023-04-03T07:35:56;10.27;;;9.57;;
16994;SDS011;8614;48.522;9.206;2023-04-03T07:38:22;9.43;;;8.73;;
16994;SDS011;8614;48.522;9.206;2023-04-03T07:40:50;9.80;;;9.10;;
16994;SDS011;8614;48.522;9.206;2023-04-03T07:43:20;9.57;;;8.87;;
16994;SDS011;8614;48.522;9.206;2023-04-03T07:45:47;9.10;;;8.40;;
16994;SDS011;8614;48.522;9.206;2023-04-03T07:48:16;9.50;;;8.83;;
16994;SDS011;8614;48.522;9.206;2023-04-03T07:50:44;9.03;;;8.23;;
16994;SDS011;8614;48.522;9.206;2023-04-03T07:53:11;10.17;;;9.47;;
16994;SDS011;8614;48.522;9.206;2023-04-03T07:55:38;10.10;;;9.40;;
16994;SDS011;8614;48.522;9.206;2023-04-03T07:58:08;9.97;;;9.33;;
16994;SDS011;8614;48.522;9.206;2023-04-03T08:00:37;9.43;;;8.80;;
16994;SDS011;8614;48.522;9.206;2023-04-03T08:03:05;9.47;;;8.77;;
16994;SDS011;8614;48.522;9.206;2023-04-03T08:05:35;9.30;;;8.70;;
16994;SDS011;8614;48.522;9.206;2023-04-03T08:08:03;7.37;;;6.87;;
16994;SDS011;8614;48.522;9.206;2023-04-03T08:10:30;7.17;;;6.57;;
16994;SDS011;8614;48.522;9.206;2023-04-03T08:12:57;9.40;;;8.73;;
16994;SDS011;8614;48.522;9.206;2023-04-03T08:15:24;10.00;;;9.40;;
16994;SDS011;8614;48.522;9.206;2023-04-03T08:17:53;10.40;;;9.80;;
16994;SDS011;8614;48.522;9.206;2023-04-03T08:20:20;10.83;;;9.83;;
16994;SDS011;8614;48.522;9.206;2023-04-03T08:22:47;9.47;;;8.70;;
16994;SDS011;8614;48.522;9.206;2023-04-03T08:25:14;8.87;;;8.27;;
16994;SDS011;8614;48.522;9.206;2023-04-03T08:27:42;8.90;;;8.40;;
16994;SDS011;8614;48.522;9.206;2023-04-03T08:30:09;8.50;;;7.80;;
16994;SDS011;8614;48.522;9.206;2023-04-03T08:32:37;8.20;;;7.60;;
16994;SDS011;8614;48.522;9.206;2023-04-03T08:35:05;8.30;;;7.77;;
16994;SDS011;8614;48.522;9.206;2023-04-03T08:37:34;8.70;;;8.00;;
16994;SDS011;8614;48.522;9.206;2023-04-03T08:40:01;8.90;;;8.30;;
16994;SDS011;8614;48.522;9.206;2023-04-03T08:42:33;8.23;;;7.60;;
16994;SDS011;8614;48.522;9.206;2023-04-03T08:45:07;6.80;;;6.30;;
16994;SDS011;8614;48.522;9.206;2023-04-03T08:47:38;6.57;;;6.07;;
16994;SDS011;8614;48.522;9.206;2023-04-03T08:50:12;10.07;;;9.47;;
16994;SDS011;8614;48.522;9.206;2023-04-03T08:52:42;10.73;;;9.87;;
16994;SDS011;8614;48.522;9.206;2023-04-03T08:55:14;8.63;;;8.00;;
16994;SDS011;8614;48.522;9.206;2023-04-03T08:57:47;10.80;;;10.00;;
16994;SDS011;8614;48.522;9.206;2023-04-03T09:00:18;10.70;;;9.80;;
16994;SDS011;8614;48.522;9.206;2023-04-03T09:02:47;10.00;;;9.20;;
16994;SDS011;8614;48.522;9.206;2023-04-03T09:05:18;10.47;;;9.60;;
16994;SDS011;8614;48.522;9.206;2023-04-03T09:07:47;9.63;;;9.03;;
16994;SDS011;8614;48.522;9.206;2023-04-03T09:10:23;10.20;;;9.30;;
16994;SDS011;8614;48.522;9.206;2023-04-03T09:12:53;9.70;;;9.00;;
16994;SDS011;8614;48.522;9.206;2023-04-03T09:15:26;10.03;;;9.23;;
16994;SDS011;8614;48.522;9.206;2023-04-03T09:17:57;10.43;;;9.57;;
16994;SDS011;8614;48.522;9.206;2023-04-03T09:20:33;9.90;;;9.30;;
16994;SDS011;8614;48.522;9.206;2023-04-03T09:23:10;10.50;;;9.60;;
16994;SDS011;8614;48.522;9.206;2023-04-03T09:25:44;9.47;;;8.87;;
16994;SDS011;8614;48.522;9.206;2023-04-03T09:28:12;9.90;;;9.20;;
16994;SDS011;8614;48.522;9.206;2023-04-03T09:30:38;9.47;;;8.77;;
16994;SDS011;8614;48.522;9.206;2023-04-03T09:33:06;10.10;;;9.37;;
16994;SDS011;8614;48.522;9.206;2023-04-03T09:35:35;10.07;;;9.27;;
16994;SDS011;8614;48.522;9.206;2023-04-03T09:38:14;9.80;;;9.10;;
16994;SDS011;8614;48.522;9.206;2023-04-03T09:40:43;9.20;;;8.60;;
16994;SDS011;8614;48.522;9.206;2023-04-03T09:43:21;9.47;;;8.60;;
16994;SDS011;8614;48.522;9.206;2023-04-03T09:45:52;9.77;;;8.90;;
16994;SDS011;8614;48.522;9.206;2023-04-03T09:48:20;9.40;;;8.60;;
16994;SDS011;8614;48.522;9.206;2023-04-03T09:50:57;9.67;;;8.87;;
16994;SDS011;8614;48.522;9.206;2023-04-03T09:53:30;9.77;;;9.00;;
16994;SDS011;8614;48.522;9.206;2023-04-03T09:56:01;10.40;;;9.60;;
16994;SDS011;8614;48.522;9.206;2023-04-03T09:58:31;9.57;;;8.87;;
16994;SDS011;8614;48.522;9.206;2023-04-03T10:01:00;9.40;;;8.70;;
16994;SDS011;8614;48.522;9.206;2023-04-03T10:03:29;9.27;;;8.57;;
16994;SDS011;8614;48.522;9.206;2023-04-03T10:06:01;9.70;;;9.00;;
16994;SDS011;8614;48.522;9.206;2023-04-03T10:08:30;9.13;;;8.43;;
16994;SDS011;8614;48.522;9.206;2023-04-03T10:11:10;10.13;;;9.33;;
16994;SDS011;8614;48.522;9.206;2023-04-03T10:13:52;9.70;;;9.00;;
16994;SDS011;8614;48.522;9.206;2023-04-03T10:16:20;7.67;;;7.07;;
16994;SDS011;8614;48.522;9.206;2023-04-03T10:18:59;12.37;;;11.47;;
16994;SDS011;8614;48.522;9.206;2023-04-03T10:21:39;6.23;;;5.73;;
16994;SDS011;8614;48.522;9.206;2023-04-03T10:24:12;5.53;;;5.03;;
16994;SDS011;8614;48.522;9.206;2023-04-03T10:26:48;9.83;;;9.03;;
16994;SDS011;8614;48.522;9.206;2023-04-03T10:29:28;10.50;;;9.60;;
16994;SDS011;8614;48.522;9.206;2023-04-03T10:32:03;10.27;;;9.37;;
16994;SDS011;8614;48.522;9.206;2023-04-03T10:34:42;10.57;;;9.50;;
16994;SDS011;8614;48.522;9.206;2023-04-03T10:37:13;9.40;;;8.80;;
16994;SDS011;8614;48.522;9.206;2023-04-03T10:39:50;10.07;;;9.27;;
16994;SDS011;8614;48.522;9.206;2023-04-03T10:42:22;10.10;;;9.30;;
16994;SDS011;8614;48.522;9.206;2023-04-03T10:44:58;10.03;;;9.30;;
16994;SDS011;8614;48.522;9.206;2023-04-03T10:47:34;9.50;;;8.90;;
16994;SDS011;8614;48.522;9.206;2023-04-03T10:50:11;9.63;;;8.80;;
16994;SDS011;8614;48.522;9.206;2023-04-03T10:52:54;9.83;;;9.03;;
16994;SDS011;8614;48.522;9.206;2023-04-03T10:55:30;9.50;;;8.80;;
16994;SDS011;8614;48.522;9.206;2023-04-03T10:58:02;9.90;;;9.20;;
16994;SDS011;8614;48.522;9.206;2023-04-03T11:00:34;9.47;;;8.87;;
16994;SDS011;8614;48.522;9.206;2023-04-03T11:03:05;10.10;;;9.30;;
16994;SDS011;8614;48.522;9.206;2023-04-03T11:05:36;8.93;;;8.33;;
16994;SDS011;8614;48.522;9.206;2023-04-03T11:08:10;9.17;;;8.47;;
16994;SDS011;8614;48.522;9.206;2023-04-03T11:10:44;7.57;;;7.07;;
16994;SDS011;8614;48.522;9.206;2023-04-03T11:13:15;7.33;;;6.77;;
16994;SDS011;8614;48.522;9.206;2023-04-03T11:15:46;9.13;;;8.53;;
16994;SDS011;8614;48.522;9.206;2023-04-03T11:18:13;7.57;;;6.87;;
16994;SDS011;8614;48.522;9.206;2023-04-03T11:20:53;9.37;;;8.77;;
16994;SDS011;8614;48.522;9.206;2023-04-03T11:23:28;9.27;;;8.67;;
16994;SDS011;8614;48.522;9.206;2023-04-03T11:26:00;8.67;;;8.10;;
16994;SDS011;8614;48.522;9.206;2023-04-03T11:28:33;8.90;;;8.30;;
16994;SDS011;8614;48.522;9.206;2023-04-03T11:31:02;9.20;;;8.40;;
16994;SDS011;8614;48.522;9.206;2023-04-03T11:33:42;8.70;;;8.00;;
16994;SDS011;8614;48.522;9.206;2023-04-03T11:36:18;8.40;;;7.80;;
16994;SDS011;8614;48.522;9.206;2023-04-03T11:38:51;9.60;;;8.93;;
16994;SDS011;8614;48.522;9.206;2023-04-03T11:41:24;8.73;;;8.03;;
16994;SDS011;8614;48.522;9.206;2023-04-03T11:43:57;9.33;;;8.47;;
16994;SDS011;8614;48.522;9.206;2023-04-03T11:55:43;8.50;;;7.90;;
16994;SDS011;8614;48.522;9.206;2023-04-03T11:58:28;8.37;;;7.80;;
16994;SDS011;8614;48.522;9.206;2023-04-03T12:00:58;8.73;;;8.13;;
16994;SDS011;8614;48.522;9.206;2023-04-03T12:06:43;8.97;;;8.30;;
16994;SDS011;8614;48.522;9.206;2023-04-03T12:12:44;8.70;;;8.20;;
16994;SDS011;8614;48.522;9.206;2023-04-03T12:15:25;8.83;;;8.10;;
16994;SDS011;8614;48.522;9.206;2023-04-03T12:21:18;8.83;;;8.10;;
16994;SDS011;8614;48.522;9.206;2023-04-03T12:23:57;8.87;;;8.17;;
16994;SDS011;8614;48.522;9.206;2023-04-03T12:26:28;8.93;;;8.27;;
16994;SDS011;8614;48.522;9.206;2023-04-03T12:29:01;8.90;;;8.20;;
16994;SDS011;8614;48.522;9.206;2023-04-03T12:31:38;8.40;;;7.80;;
16994;SDS011;8614;48.522;9.206;2023-04-03T12:34:15;8.53;;;7.77;;
16994;SDS011;8614;48.522;9.206;2023-04-03T12:36:55;8.63;;;8.00;;
16994;SDS011;8614;48.522;9.206;2023-04-03T12:39:42;8.40;;;7.90;;
16994;SDS011;8614;48.522;9.206;2023-04-03T12:45:12;8.80;;;8.10;;
16994;SDS011;8614;48.522;9.206;2023-04-03T12:47:45;8.53;;;7.83;;
16994;SDS011;8614;48.522;9.206;2023-04-03T12:50:19;8.87;;;8.17;;
16994;SDS011;8614;48.522;9.206;2023-04-03T12:52:51;8.43;;;7.87;;
16994;SDS011;8614;48.522;9.206;2023-04-03T12:55:22;9.60;;;8.10;;
16994;SDS011;8614;48.522;9.206;2023-04-03T12:57:49;8.47;;;7.73;;
16994;SDS011;8614;48.522;9.206;2023-04-03T13:00:25;8.17;;;7.60;;
16994;SDS011;8614;48.522;9.206;2023-04-03T13:02:59;8.13;;;7.63;;
16994;SDS011;8614;48.522;9.206;2023-04-03T13:05:27;8.40;;;7.77;;
16994;SDS011;8614;48.522;9.206;2023-04-03T13:07:57;8.27;;;7.57;;
16994;SDS011;8614;48.522;9.206;2023-04-03T13:10:27;8.77;;;7.97;;
16994;SDS011;8614;48.522;9.206;2023-04-03T13:12:54;8.90;;;8.00;;
16994;SDS011;8614;48.522;9.206;2023-04-03T13:15:25;8.40;;;7.90;;
16994;SDS011;8614;48.522;9.206;2023-04-03T13:17:53;8.50;;;7.80;;
16994;SDS011;8614;48.522;9.206;2023-04-03T13:20:23;8.77;;;8.07;;
16994;SDS011;8614;48.522;9.206;2023-04-03T13:22:53;8.33;;;7.73;;
16994;SDS011;8614;48.522;9.206;2023-04-03T13:25:24;8.53;;;7.80;;
16994;SDS011;8614;48.522;9.206;2023-04-03T13:27:54;8.67;;;7.90;;
16994;SDS011;8614;48.522;9.206;2023-04-03T13:30:26;8.70;;;8.10;;
16994;SDS011;8614;48.522;9.206;2023-04-03T13:32:55;8.50;;;7.87;;
16994;SDS011;8614;48.522;9.206;2023-04-03T13:35:25;8.20;;;7.50;;
16994;SDS011;8614;48.522;9.206;2023-04-03T13:37:56;8.37;;;7.77;;
16994;SDS011;8614;48.522;9.206;2023-04-03T13:40:24;8.90;;;8.10;;
16994;SDS011;8614;48.522;9.206;2023-04-03T13:42:58;9.17;;;8.40;;
16994;SDS011;8614;48.522;9.206;2023-04-03T13:45:28;8.60;;;7.90;;
16994;SDS011;8614;48.522;9.206;2023-04-03T13:48:06;8.80;;;8.20;;
16994;SDS011;8614;48.522;9.206;2023-04-03T13:50:49;8.43;;;7.82;;
16994;SDS011;8614;48.522;9.206;2023-04-03T13:53:18;8.47;;;7.87;;
16994;SDS011;8614;48.522;9.206;2023-04-03T13:55:56;8.33;;;7.63;;
16994;SDS011;8614;48.522;9.206;2023-04-03T13:58:25;8.10;;;7.60;;
16994;SDS011;8614;48.522;9.206;2023-04-03T14:00:56;8.03;;;7.43;;
16994;SDS011;8614;48.522;9.206;2023-04-03T14:03:33;8.53;;;7.80;;
16994;SDS011;8614;48.522;9.206;2023-04-03T14:06:06;8.10;;;7.50;;
16994;SDS011;8614;48.522;9.206;2023-04-03T14:08:34;8.33;;;7.63;;
16994;SDS011;8614;48.522;9.206;2023-04-03T14:11:01;8.47;;;7.77;;
16994;SDS011;8614;48.522;9.206;2023-04-03T14:13:29;8.30;;;7.70;;
16994;SDS011;8614;48.522;9.206;2023-04-03T14:15:59;7.93;;;7.43;;
16994;SDS011;8614;48.522;9.206;2023-04-03T14:18:25;8.87;;;8.07;;
16994;SDS011;8614;48.522;9.206;2023-04-03T14:20:52;8.53;;;7.90;;
16994;SDS011;8614;48.522;9.206;2023-04-03T14:23:19;8.03;;;7.50;;
16994;SDS011;8614;48.522;9.206;2023-04-03T14:25:46;7.87;;;7.30;;
16994;SDS011;8614;48.522;9.206;2023-04-03T14:28:15;8.10;;;7.50;;
16994;SDS011;8614;48.522;9.206;2023-04-03T14:30:44;9.50;;;8.70;;
16994;SDS011;8614;48.522;9.206;2023-04-03T14:33:14;8.43;;;7.80;;
16994;SDS011;8614;48.522;9.206;2023-04-03T14:35:43;8.50;;;7.80;;
16994;SDS011;8614;48.522;9.206;2023-04-03T14:38:20;8.40;;;7.80;;
16994;SDS011;8614;48.522;9.206;2023-04-03T14:40:50;8.10;;;7.60;;
16994;SDS011;8614;48.522;9.206;2023-04-03T14:43:17;8.10;;;7.60;;
16994;SDS011;8614;48.522;9.206;2023-04-03T14:45:45;8.27;;;7.77;;
16994;SDS011;8614;48.522;9.206;2023-04-03T14:48:15;8.53;;;7.80;;
16994;SDS011;8614;48.522;9.206;2023-04-03T14:50:44;7.90;;;7.40;;
16994;SDS011;8614;48.522;9.206;2023-04-03T14:53:11;8.60;;;8.00;;
16994;SDS011;8614;48.522;9.206;2023-04-03T14:55:39;8.80;;;8.10;;
16994;SDS011;8614;48.522;9.206;2023-04-03T14:58:08;8.23;;;7.60;;
16994;SDS011;8614;48.522;9.206;2023-04-03T15:00:38;8.60;;;8.00;;
16994;SDS011;8614;48.522;9.206;2023-04-03T15:03:04;8.83;;;8.03;;
16994;SDS011;8614;48.522;9.206;2023-04-03T15:05:33;8.53;;;7.93;;
16994;SDS011;8614;48.522;9.206;2023-04-03T15:08:02;8.30;;;7.70;;
16994;SDS011;8614;48.522;9.206;2023-04-03T15:10:30;8.00;;;7.50;;
16994;SDS011;8614;48.522;9.206;2023-04-03T15:12:58;8.43;;;7.83;;
16994;SDS011;8614;48.522;9.206;2023-04-03T15:15:27;8.00;;;7.40;;
16994;SDS011;8614;48.522;9.206;2023-04-03T15:17:55;8.00;;;7.50;;
16994;SDS011;8614;48.522;9.206;2023-04-03T15:20:23;8.50;;;7.80;;
16994;SDS011;8614;48.522;9.206;2023-04-03T15:22:52;8.03;;;7.43;;
16994;SDS011;8614;48.522;9.206;2023-04-03T15:25:21;8.27;;;7.67;;
16994;SDS011;8614;48.522;9.206;2023-04-03T15:27:48;9.13;;;8.43;;
16994;SDS011;8614;48.522;9.206;2023-04-03T15:30:16;9.17;;;8.47;;
16994;SDS011;8614;48.522;9.206;2023-04-03T15:32:44;8.97;;;8.30;;
16994;SDS011;8614;48.522;9.206;2023-04-03T15:35:11;8.70;;;8.00;;
16994;SDS011;8614;48.522;9.206;2023-04-03T15:37:38;8.90;;;8.20;;
16994;SDS011;8614;48.522;9.206;2023-04-03T15:40:07;8.37;;;7.67;;
16994;SDS011;8614;48.522;9.206;2023-04-03T15:42:34;8.50;;;7.90;;
16994;SDS011;8614;48.522;9.206;2023-04-03T15:45:01;8.67;;;8.07;;
16994;SDS011;8614;48.522;9.206;2023-04-03T15:47:28;8.20;;;7.60;;
16994;SDS011;8614;48.522;9.206;2023-04-03T15:49:55;8.70;;;7.80;;
16994;SDS011;8614;48.522;9.206;2023-04-03T15:52:22;7.63;;;7.03;;
16994;SDS011;8614;48.522;9.206;2023-04-03T15:54:49;7.90;;;7.40;;
16994;SDS011;8614;48.522;9.206;2023-04-03T15:57:17;8.53;;;7.83;;
16994;SDS011;8614;48.522;9.206;2023-04-03T15:59:44;7.93;;;7.30;;
16994;SDS011;8614;48.522;9.206;2023-04-03T16:02:11;7.80;;;7.30;;
16994;SDS011;8614;48.522;9.206;2023-04-03T16:04:38;8.17;;;7.57;;
16994;SDS011;8614;48.522;9.206;2023-04-03T16:07:06;7.70;;;7.10;;
16994;SDS011;8614;48.522;9.206;2023-04-03T16:09:32;7.80;;;7.23;;
16994;SDS011;8614;48.522;9.206;2023-04-03T16:12:00;8.00;;;7.40;;
16994;SDS011;8614;48.522;9.206;2023-04-03T16:14:29;7.77;;;7.17;;
16994;SDS011;8614;48.522;9.206;2023-04-03T16:16:56;7.23;;;6.77;;
16994;SDS011;8614;48.522;9.206;2023-04-03T16:19:23;7.87;;;7.17;;
16994;SDS011;8614;48.522;9.206;2023-04-03T16:21:50;7.43;;;6.93;;
16994;SDS011;8614;48.522;9.206;2023-04-03T16:24:17;7.17;;;6.63;;
16994;SDS011;8614;48.522;9.206;2023-04-03T16:26:44;7.87;;;7.10;;
16994;SDS011;8614;48.522;9.206;2023-04-03T16:29:11;7.83;;;7.23;;
16994;SDS011;8614;48.522;9.206;2023-04-03T16:31:39;7.87;;;7.33;;
16994;SDS011;8614;48.522;9.206;2023-04-03T16:34:06;8.23;;;7.53;;
16994;SDS011;8614;48.522;9.206;2023-04-03T16:36:33;7.67;;;7.17;;
16994;SDS011;8614;48.522;9.206;2023-04-03T16:38:59;8.50;;;7.90;;
16994;SDS011;8614;48.522;9.206;2023-04-03T16:41:26;8.60;;;8.00;;
16994;SDS011;8614;48.522;9.206;2023-04-03T16:43:53;8.40;;;7.80;;
16994;SDS011;8614;48.522;9.206;2023-04-03T16:46:20;8.63;;;7.80;;
16994;SDS011;8614;48.522;9.206;2023-04-03T16:48:48;8.60;;;7.80;;
16994;SDS011;8614;48.522;9.206;2023-04-03T16:51:15;8.30;;;7.50;;
16994;SDS011;8614;48.522;9.206;2023-04-03T16:53:41;7.10;;;6.60;;
16994;SDS011;8614;48.522;9.206;2023-04-03T16:56:08;6.97;;;6.47;;
16994;SDS011;8614;48.522;9.206;2023-04-03T16:58:35;7.83;;;7.20;;
16994;SDS011;8614;48.522;9.206;2023-04-03T17:01:08;7.60;;;7.00;;
16994;SDS011;8614;48.522;9.206;2023-04-03T17:03:36;8.83;;;7.50;;
16994;SDS011;8614;48.522;9.206;2023-04-03T17:06:04;7.63;;;7.10;;
16994;SDS011;8614;48.522;9.206;2023-04-03T17:08:31;7.37;;;6.80;;
16994;SDS011;8614;48.522;9.206;2023-04-03T17:10:58;7.17;;;6.67;;
16994;SDS011;8614;48.522;9.206;2023-04-03T17:13:25;7.17;;;6.57;;
16994;SDS011;8614;48.522;9.206;2023-04-03T17:15:56;7.40;;;6.80;;
16994;SDS011;8614;48.522;9.206;2023-04-03T17:18:23;7.03;;;6.43;;
16994;SDS011;8614;48.522;9.206;2023-04-03T17:20:50;6.77;;;6.23;;
16994;SDS011;8614;48.522;9.206;2023-04-03T17:23:18;7.60;;;7.00;;
16994;SDS011;8614;48.522;9.206;2023-04-03T17:25:45;7.80;;;7.20;;
16994;SDS011;8614;48.522;9.206;2023-04-03T17:28:12;7.90;;;7.33;;
16994;SDS011;8614;48.522;9.206;2023-04-03T17:30:38;7.40;;;6.80;;